Magaria, Niger
Current Conditions -  °F | °C
As of 10:45 PM on Thursday 30 Oct 2014 (Local Time) from KQAZ Reporting Station
Clear Clear  
Wind Chill: 81°   Ceiling: Unl
Heat Index: 81°   Visibility: 6mi
Dew Point: 34°   Wind: 3mph
Humidity: 18%   Direction: 80°E
Pressure: 29.92"   Gusts: NA
Location:  12.99°N, 8.91°E
Report Text: KQAZ 302145Z AUTO 08003KT 9999 CLR 27/01 A2992 RMK CDP03565 CLR
Loading
Personal Weather Stations






























Interactive Weather Map
Tropical Storm Tracking
New forecast layout! Learn more

10-Day Weather Forecast

Advertisements
Track Severe Weather on mobile